createdAt,value
2022-11-12T00:00:56.368Z,102557.97
2022-11-12T00:03:22.840Z,102557.44
2022-11-12T00:05:50.599Z,102560.69
2022-11-12T00:08:17.661Z,102565.59
2022-11-12T00:10:45.011Z,102566.41
2022-11-12T00:13:11.790Z,102574.53
2022-11-12T00:15:38.254Z,102569.38
2022-11-12T00:18:04.854Z,102564.63
2022-11-12T00:20:31.388Z,102564.19
2022-11-12T00:22:57.788Z,102564.72
2022-11-12T00:25:24.417Z,102565.81
2022-11-12T00:27:50.848Z,102559.56
2022-11-12T00:30:17.281Z,102558.47
2022-11-12T00:32:43.754Z,102566.66
2022-11-12T00:35:13.671Z,102568.25
2022-11-12T00:37:40.938Z,102556.03
2022-11-12T00:40:08.447Z,102563.63
2022-11-12T00:42:34.870Z,102564.19
2022-11-12T00:45:01.349Z,102568.53
2022-11-12T00:47:27.785Z,102571.19
2022-11-12T00:49:54.209Z,102573.94
2022-11-12T00:52:20.621Z,102580.94
2022-11-12T00:54:47.046Z,102576.25
2022-11-12T00:57:13.458Z,102570.25
2022-11-12T00:59:39.900Z,102578.66
2022-11-12T01:02:06.360Z,102581.16
2022-11-12T01:04:33.169Z,102586.53
2022-11-12T01:06:59.668Z,102590.41
2022-11-12T01:09:26.404Z,102585.53
2022-11-12T01:11:52.851Z,102573.50
2022-11-12T01:14:19.280Z,102578.44
2022-11-12T01:16:45.722Z,102579.25
2022-11-12T01:19:13.608Z,102579.00
2022-11-12T01:21:42.500Z,102583.63
2022-11-12T01:24:10.000Z,102587.09
2022-11-12T01:26:37.355Z,102593.63
2022-11-12T01:29:04.591Z,102600.13
2022-11-12T01:31:34.202Z,102591.97
2022-11-12T01:34:04.862Z,102595.78
2022-11-12T01:36:34.254Z,102599.47
2022-11-12T01:39:00.987Z,102592.16
2022-11-12T01:41:30.622Z,102591.91
2022-11-12T01:44:30.162Z,102602.22
2022-11-12T01:47:19.174Z,102595.22
2022-11-12T01:50:19.292Z,102604.16
2022-11-12T01:53:00.437Z,102601.72
2022-11-12T01:55:31.771Z,102600.50
2022-11-12T01:58:06.684Z,102601.91
2022-11-12T02:00:33.114Z,102595.47
2022-11-12T02:03:02.090Z,102605.44
2022-11-12T02:05:30.834Z,102596.19
2022-11-12T02:08:00.485Z,102601.66
2022-11-12T02:10:27.790Z,102606.56
2022-11-12T02:13:13.368Z,102610.63
2022-11-12T02:15:41.079Z,102601.94
2022-11-12T02:18:08.051Z,102610.19
2022-11-12T02:20:36.384Z,102607.22
2022-11-12T02:23:03.909Z,102601.50
2022-11-12T02:25:30.588Z,102611.81
2022-11-12T02:27:58.784Z,102608.53
2022-11-12T02:30:51.539Z,102607.28
2022-11-12T02:33:17.966Z,102609.56
2022-11-12T02:35:44.375Z,102612.94
2022-11-12T02:38:11.197Z,102609.91
2022-11-12T02:40:37.735Z,102610.88
2022-11-12T02:43:04.204Z,102615.09
2022-11-12T02:45:32.022Z,102604.22
2022-11-12T02:47:58.579Z,102613.81
2022-11-12T02:50:25.024Z,102612.56
2022-11-12T02:52:51.465Z,102607.94
2022-11-12T02:55:18.044Z,102609.63
2022-11-12T02:57:44.505Z,102619.34
2022-11-12T03:00:13.113Z,102615.09
2022-11-12T03:02:42.574Z,102614.78
2022-11-12T03:05:12.148Z,102621.28
2022-11-12T03:07:39.189Z,102616.56
2022-11-12T03:10:06.506Z,102628.53
2022-11-12T03:12:33.282Z,102619.66
2022-11-12T03:14:59.724Z,102627.78
2022-11-12T03:17:26.141Z,102634.31
2022-11-12T03:19:52.516Z,102629.16
2022-11-12T03:22:18.926Z,102633.53
2022-11-12T03:24:45.377Z,102620.50
2022-11-12T03:27:11.803Z,102626.47
2022-11-12T03:29:38.242Z,102631.34
2022-11-12T03:32:04.807Z,102630.47
2022-11-12T03:34:31.180Z,102635.31
2022-11-12T03:36:57.556Z,102618.53
2022-11-12T03:39:23.990Z,102633.63
2022-11-12T03:41:50.372Z,102621.88
2022-11-12T03:44:16.769Z,102624.94
2022-11-12T03:46:44.525Z,102614.84
2022-11-12T03:49:11.123Z,102620.44
2022-11-12T03:51:37.496Z,102627.50
2022-11-12T03:54:04.148Z,102614.84
2022-11-12T03:56:30.574Z,102625.91
2022-11-12T03:58:56.964Z,102625.78
2022-11-12T04:01:23.427Z,102620.97
2022-11-12T04:03:49.936Z,102620.94
2022-11-12T04:06:34.938Z,102620.66
2022-11-12T04:09:01.423Z,102626.25
2022-11-12T04:11:27.889Z,102631.59
2022-11-12T04:13:54.313Z,102618.16
2022-11-12T04:16:41.051Z,102626.34
2022-11-12T04:19:30.551Z,102633.06
2022-11-12T04:22:09.007Z,102635.28
2022-11-12T04:25:01.473Z,102626.53
2022-11-12T04:27:33.380Z,102629.03
2022-11-12T04:30:19.372Z,102639.91
2022-11-12T04:32:52.809Z,102631.03
2022-11-12T04:35:19.244Z,102625.88
2022-11-12T04:37:45.942Z,102627.84
2022-11-12T04:40:35.257Z,102635.25
2022-11-12T04:43:21.899Z,102629.53
2022-11-12T04:45:51.207Z,102625.06
2022-11-12T04:48:18.578Z,102631.63
2022-11-12T04:51:31.085Z,102638.22
2022-11-12T04:53:57.519Z,102640.97
2022-11-12T04:56:23.985Z,102636.09
2022-11-12T04:58:50.419Z,102639.16
2022-11-12T05:01:16.878Z,102640.56
2022-11-12T05:03:43.372Z,102631.06
2022-11-12T05:06:28.165Z,102633.03
2022-11-12T05:08:54.759Z,102637.94
2022-11-12T05:11:21.306Z,102634.13
2022-11-12T05:13:47.707Z,102641.75
2022-11-12T05:16:14.210Z,102632.47
2022-11-12T05:18:40.606Z,102634.13
2022-11-12T05:21:26.995Z,102638.22
2022-11-12T05:23:53.382Z,102635.19
2022-11-12T05:26:19.948Z,102635.19
2022-11-12T05:28:46.409Z,102630.84
2022-11-12T05:31:12.794Z,102634.91
2022-11-12T05:33:39.180Z,102636.78
2022-11-12T05:36:05.815Z,102642.78
2022-11-12T05:38:32.213Z,102642.78
2022-11-12T05:40:58.600Z,102649.25
2022-11-12T05:43:25.081Z,102642.44
2022-11-12T05:45:51.470Z,102655.78
2022-11-12T05:48:24.035Z,102650.88
2022-11-12T05:51:11.836Z,102662.03
2022-11-12T05:53:38.371Z,102654.38
2022-11-12T05:56:06.454Z,102653.03
2022-11-12T05:58:33.437Z,102647.28
2022-11-12T06:00:59.976Z,102649.50
2022-11-12T06:03:26.829Z,102636.38
2022-11-12T06:05:53.254Z,102642.09
2022-11-12T06:08:19.677Z,102648.41
2022-11-12T06:10:50.050Z,102640.44
2022-11-12T06:13:16.481Z,102640.69
2022-11-12T06:15:42.906Z,102633.31
2022-11-12T06:18:09.848Z,102634.13
2022-11-12T06:20:36.491Z,102630.13
2022-11-12T06:23:03.444Z,102642.13
2022-11-12T06:25:30.195Z,102645.66
2022-11-12T06:27:56.592Z,102645.72
2022-11-12T06:30:25.825Z,102646.28
2022-11-12T06:32:52.822Z,102639.22
2022-11-12T06:35:19.936Z,102644.66
2022-11-12T06:37:47.625Z,102655.56
2022-11-12T06:40:14.104Z,102653.88
2022-11-12T06:42:40.773Z,102651.50
2022-11-12T06:45:07.724Z,102649.63
2022-11-12T06:47:34.170Z,102654.78
2022-11-12T06:50:00.697Z,102657.22
2022-11-12T06:52:27.101Z,102674.66
2022-11-12T06:54:53.514Z,102663.78
2022-11-12T06:57:19.876Z,102667.34
2022-11-12T06:59:46.252Z,102674.66
2022-11-12T07:02:13.665Z,102683.66
2022-11-12T07:04:40.096Z,102676.84
2022-11-12T07:07:10.443Z,102683.09
2022-11-12T07:09:37.327Z,102673.31
2022-11-12T07:12:03.917Z,102671.66
2022-11-12T07:14:30.405Z,102679.84
2022-11-12T07:16:56.813Z,102670.59
2022-11-12T07:19:23.216Z,102669.47
2022-11-12T07:21:49.596Z,102673.03
2022-11-12T07:24:16.028Z,102672.22
2022-11-12T07:26:47.275Z,102678.22
2022-11-12T07:29:24.878Z,102677.66
2022-11-12T07:32:00.575Z,102687.47
2022-11-12T07:34:26.991Z,102694.78
2022-11-12T07:36:53.471Z,102688.25
2022-11-12T07:39:19.883Z,102687.97
2022-11-12T07:41:46.267Z,102696.69
2022-11-12T07:44:12.661Z,102707.56
2022-11-12T07:46:39.084Z,102698.84
2022-11-12T07:49:05.595Z,102692.53
2022-11-12T07:51:31.977Z,102705.34
2022-11-12T07:53:59.966Z,102705.34
2022-11-12T07:56:27.720Z,102699.63
2022-11-12T07:58:54.433Z,102704.22
2022-11-12T08:01:31.994Z,102706.69
2022-11-12T08:04:03.008Z,102721.59
2022-11-12T08:06:31.038Z,102713.41
2022-11-12T08:08:59.529Z,102714.50
2022-11-12T08:11:26.011Z,102704.13
2022-11-12T08:13:52.609Z,102714.16
2022-11-12T08:16:19.262Z,102716.66
2022-11-12T08:18:46.120Z,102713.34
2022-11-12T08:21:14.748Z,102714.22
2022-11-12T08:23:41.657Z,102719.44
2022-11-12T08:26:11.965Z,102734.09
2022-11-12T08:28:39.329Z,102724.28
2022-11-12T08:31:11.600Z,102718.84
2022-11-12T08:33:38.874Z,102743.88
2022-11-12T08:36:07.583Z,102745.25
2022-11-12T08:38:34.542Z,102739.81
2022-11-12T08:41:02.391Z,102738.38
2022-11-12T08:43:28.802Z,102741.09
2022-11-12T08:45:58.399Z,102747.84
2022-11-12T08:48:25.706Z,102741.59
2022-11-12T08:50:52.974Z,102728.84
2022-11-12T08:53:22.416Z,102731.22
2022-11-12T08:55:49.461Z,102743.34
2022-11-12T08:58:16.022Z,102747.75
2022-11-12T09:00:44.138Z,102744.75
2022-11-12T09:03:15.909Z,102744.97
2022-11-12T09:05:42.944Z,102741.13
2022-11-12T09:08:12.114Z,102738.69
2022-11-12T09:10:39.580Z,102752.59
2022-11-12T09:13:06.274Z,102757.50
2022-11-12T09:15:38.011Z,102754.41
2022-11-12T09:18:07.830Z,102743.66
2022-11-12T09:20:34.549Z,102738.44
2022-11-12T09:23:04.013Z,102753.97
2022-11-12T09:25:30.823Z,102741.63
2022-11-12T09:27:57.251Z,102735.50
2022-11-12T09:30:23.973Z,102738.16
2022-11-12T09:32:50.493Z,102751.53
2022-11-12T09:35:17.049Z,102755.78
2022-11-12T09:37:43.521Z,102747.78
2022-11-12T09:40:18.111Z,102749.41
2022-11-12T09:42:48.049Z,102744.13
2022-11-12T09:45:26.122Z,102745.41
2022-11-12T09:48:06.698Z,102748.97
2022-11-12T09:51:04.874Z,102750.53
2022-11-12T09:53:57.740Z,102766.59
2022-11-12T09:56:26.111Z,102751.78
2022-11-12T09:58:53.836Z,102746.06
2022-11-12T10:01:32.202Z,102756.97
2022-11-12T10:04:27.624Z,102765.31
2022-11-12T10:07:06.396Z,102766.16
2022-11-12T10:09:56.297Z,102763.66
2022-11-12T10:12:46.857Z,102743.03
2022-11-12T10:15:59.953Z,102757.81
2022-11-12T10:19:07.666Z,102769.81
2022-11-12T10:22:02.014Z,102767.28
2022-11-12T10:24:34.661Z,102768.13
2022-11-12T10:27:02.550Z,102759.09
2022-11-12T10:29:40.362Z,102765.53
2022-11-12T10:32:15.236Z,102769.09
2022-11-12T10:34:41.712Z,102780.03
2022-11-12T10:37:20.386Z,102762.78
2022-11-12T10:39:47.646Z,102748.56
2022-11-12T10:42:16.720Z,102739.88
2022-11-12T10:44:43.839Z,102754.97
2022-11-12T10:47:16.411Z,102760.91
2022-11-12T10:49:42.821Z,102761.66
2022-11-12T10:52:24.101Z,102741.44
2022-11-12T10:55:05.163Z,102738.28
2022-11-12T10:57:31.613Z,102743.19
2022-11-12T11:00:20.079Z,102746.13
2022-11-12T11:02:54.336Z,102739.88
2022-11-12T11:05:50.104Z,102740.34
2022-11-12T11:08:35.915Z,102728.84
2022-11-12T11:11:28.489Z,102724.97
2022-11-12T11:13:57.574Z,102720.91
2022-11-12T11:16:26.888Z,102726.00
2022-11-12T11:18:59.448Z,102726.00
2022-11-12T11:21:42.072Z,102729.25
2022-11-12T11:24:32.749Z,102731.28
2022-11-12T11:27:17.464Z,102744.16
2022-11-12T11:29:59.006Z,102734.88
2022-11-12T11:32:49.835Z,102736.94
2022-11-12T11:35:48.201Z,102731.78
2022-11-12T11:38:59.260Z,102727.72
2022-11-12T11:41:34.500Z,102750.63
2022-11-12T11:44:15.870Z,102738.81
2022-11-12T11:46:42.346Z,102727.88
2022-11-12T11:49:27.283Z,102722.69
2022-11-12T11:52:18.484Z,102721.34
2022-11-12T11:55:21.599Z,102724.88
2022-11-12T11:58:00.337Z,102724.78
2022-11-12T12:00:37.041Z,102707.03
2022-11-12T12:03:17.921Z,102725.00
2022-11-12T12:06:18.352Z,102708.47
2022-11-12T12:08:59.993Z,102700.50
2022-11-12T12:11:35.659Z,102701.56
2022-11-12T12:14:36.791Z,102695.16
2022-11-12T12:17:36.101Z,102696.78
2022-11-12T12:20:14.523Z,102684.81
2022-11-12T12:22:47.143Z,102691.53
2022-11-12T12:25:28.159Z,102697.22
2022-11-12T12:28:10.209Z,102685.53
2022-11-12T12:30:40.249Z,102688.78
2022-11-12T12:33:25.255Z,102690.41
2022-11-12T12:36:13.856Z,102692.66
2022-11-12T12:38:48.229Z,102697.00
2022-11-12T12:41:20.808Z,102688.47
2022-11-12T12:43:52.732Z,102679.44
2022-11-12T12:46:24.079Z,102686.78
2022-11-12T12:48:54.002Z,102678.97
2022-11-12T12:51:21.732Z,102676.75
2022-11-12T12:53:48.266Z,102672.56
2022-11-12T12:56:14.660Z,102667.09
2022-11-12T12:58:46.976Z,102673.00
2022-11-12T13:01:22.522Z,102672.00
2022-11-12T13:03:59.233Z,102672.56
2022-11-12T13:06:29.169Z,102669.81
2022-11-12T13:09:24.463Z,102665.47
2022-11-12T13:12:05.427Z,102668.81
2022-11-12T13:14:34.847Z,102675.44
2022-11-12T13:17:07.150Z,102677.34
2022-11-12T13:19:35.964Z,102673.00
2022-11-12T13:22:17.941Z,102672.00
2022-11-12T13:25:20.198Z,102665.16
2022-11-12T13:27:47.051Z,102672.28
2022-11-12T13:30:13.457Z,102662.22
2022-11-12T13:32:49.723Z,102663.84
2022-11-12T13:35:21.779Z,102663.25
2022-11-12T13:38:00.841Z,102669.34
2022-11-12T13:40:30.275Z,102659.69
2022-11-12T13:43:18.592Z,102661.22
2022-11-12T13:45:50.216Z,102657.88
2022-11-12T13:48:40.810Z,102660.50
2022-11-12T13:51:32.098Z,102660.63
2022-11-12T13:53:58.961Z,102661.63
2022-11-12T13:56:31.694Z,102660.03
2022-11-12T13:59:18.388Z,102650.75
2022-11-12T14:01:47.308Z,102647.81
2022-11-12T14:04:16.663Z,102644.56
2022-11-12T14:06:51.799Z,102655.19
2022-11-12T14:09:36.969Z,102652.63
2022-11-12T14:12:29.659Z,102636.81
2022-11-12T14:15:15.083Z,102647.16
2022-11-12T14:17:47.600Z,102642.47
2022-11-12T14:20:39.671Z,102644.72
2022-11-12T14:23:12.442Z,102649.16
2022-11-12T14:25:50.656Z,102648.13
2022-11-12T14:28:37.190Z,102632.00
2022-11-12T14:31:04.893Z,102641.09
2022-11-12T14:33:32.605Z,102632.38
2022-11-12T14:36:05.244Z,102635.44
2022-11-12T14:38:39.951Z,102635.72
2022-11-12T14:41:15.874Z,102633.06
2022-11-12T14:43:50.156Z,102636.91
2022-11-12T14:46:23.495Z,102631.72
2022-11-12T14:48:58.112Z,102643.03
2022-11-12T14:51:29.475Z,102635.13
2022-11-12T14:54:26.184Z,102641.78
2022-11-12T14:56:53.057Z,102632.84
2022-11-12T14:59:19.740Z,102634.84
2022-11-12T15:02:48.916Z,102637.38
2022-11-12T15:05:21.048Z,102643.22
2022-11-12T15:07:51.901Z,102641.63
2022-11-12T15:10:38.130Z,102639.06
2022-11-12T15:13:15.380Z,102635.97
2022-11-12T15:15:55.109Z,102638.25
2022-11-12T15:18:27.444Z,102640.25
2022-11-12T15:21:12.087Z,102636.03
2022-11-12T15:24:04.795Z,102638.91
2022-11-12T15:26:35.917Z,102647.97
2022-11-12T15:29:36.124Z,102648.09
2022-11-12T15:32:13.506Z,102642.53
2022-11-12T15:34:40.785Z,102644.50
2022-11-12T15:37:19.539Z,102650.91
2022-11-12T15:39:52.816Z,102650.19
2022-11-12T15:42:30.133Z,102648.66
2022-11-12T15:45:09.650Z,102653.09
2022-11-12T15:47:36.150Z,102647.13
2022-11-12T15:50:15.337Z,102654.59
2022-11-12T15:52:42.071Z,102657.09
2022-11-12T15:55:09.417Z,102651.72
2022-11-12T15:57:40.875Z,102649.03
2022-11-12T16:00:15.471Z,102650.16
2022-11-12T16:02:42.560Z,102655.66
2022-11-12T16:05:16.731Z,102648.63
2022-11-12T16:07:43.234Z,102659.00
2022-11-12T16:10:17.334Z,102663.72
2022-11-12T16:12:45.376Z,102666.22
2022-11-12T16:15:20.716Z,102658.63
2022-11-12T16:17:47.970Z,102668.75
2022-11-12T16:20:31.127Z,102671.28
2022-11-12T16:22:57.989Z,102668.84
2022-11-12T16:25:29.750Z,102678.94
2022-11-12T16:27:57.720Z,102672.94
2022-11-12T16:30:30.198Z,102679.25
2022-11-12T16:32:57.949Z,102672.19
2022-11-12T16:35:25.597Z,102669.22
2022-11-12T16:37:54.331Z,102670.91
2022-11-12T16:40:27.222Z,102669.25
2022-11-12T16:42:53.707Z,102674.44
2022-11-12T16:45:23.783Z,102674.19
2022-11-12T16:47:55.190Z,102666.03
2022-11-12T16:50:24.847Z,102674.50
2022-11-12T16:52:52.716Z,102671.78
2022-11-12T16:55:20.318Z,102662.53
2022-11-12T16:57:46.980Z,102660.34
2022-11-12T17:00:16.104Z,102668.56
2022-11-12T17:02:47.138Z,102658.75
2022-11-12T17:05:21.234Z,102667.75
2022-11-12T17:07:48.490Z,102662.31
2022-11-12T17:10:16.305Z,102668.03
2022-11-12T17:12:43.483Z,102666.66
2022-11-12T17:15:10.281Z,102668.34
2022-11-12T17:17:36.746Z,102674.06
2022-11-12T17:20:03.543Z,102659.91
2022-11-12T17:22:31.121Z,102662.63
2022-11-12T17:24:57.601Z,102673.22
2022-11-12T17:27:24.028Z,102675.16
2022-11-12T17:29:50.493Z,102676.78
2022-11-12T17:32:16.991Z,102675.16
2022-11-12T17:34:43.498Z,102661.81
2022-11-12T17:37:09.960Z,102666.19
2022-11-12T17:39:36.382Z,102671.63
2022-11-12T17:42:02.925Z,102670.28
2022-11-12T17:44:29.438Z,102669.47
2022-11-12T17:46:56.044Z,102669.75
2022-11-12T17:49:22.525Z,102664.56
2022-11-12T17:51:48.999Z,102670.28
2022-11-12T17:54:15.456Z,102670.56
2022-11-12T17:56:41.905Z,102668.41
2022-11-12T17:59:08.997Z,102662.13
2022-11-12T18:01:35.496Z,102662.41
2022-11-12T18:04:02.012Z,102667.84
2022-11-12T18:06:31.536Z,102665.41
2022-11-12T18:09:04.718Z,102665.97
2022-11-12T18:11:41.629Z,102667.31
2022-11-12T18:14:08.869Z,102669.50
2022-11-12T18:16:35.528Z,102662.69
2022-11-12T18:19:02.178Z,102665.94
2022-11-12T18:21:28.658Z,102666.22
2022-11-12T18:23:55.047Z,102662.44
2022-11-12T18:26:21.784Z,102661.88
2022-11-12T18:28:52.711Z,102655.63
2022-11-12T18:31:19.698Z,102655.38
2022-11-12T18:33:46.104Z,102663.25
2022-11-12T18:36:18.352Z,102674.13
2022-11-12T18:38:46.803Z,102665.97
2022-11-12T18:41:15.467Z,102670.56
2022-11-12T18:43:41.936Z,102671.69
2022-11-12T18:46:10.056Z,102666.50
2022-11-12T18:48:37.863Z,102671.13
2022-11-12T18:51:10.535Z,102668.97
2022-11-12T18:53:38.453Z,102663.50
2022-11-12T18:56:14.211Z,102662.41
2022-11-12T18:58:41.129Z,102663.78
2022-11-12T19:01:11.053Z,102665.13
2022-11-12T19:03:37.745Z,102666.75
2022-11-12T19:06:06.305Z,102673.81
2022-11-12T19:08:33.638Z,102678.41
2022-11-12T19:11:02.124Z,102679.75
2022-11-12T19:13:29.587Z,102674.31
2022-11-12T19:16:03.667Z,102678.13
2022-11-12T19:18:30.518Z,102671.34
2022-11-12T19:21:05.865Z,102671.88
2022-11-12T19:23:33.164Z,102671.84
2022-11-12T19:26:00.870Z,102675.13
2022-11-12T19:28:27.736Z,102673.19
2022-11-12T19:30:54.642Z,102671.88
2022-11-12T19:33:21.260Z,102667.78
2022-11-12T19:35:47.921Z,102663.72
2022-11-12T19:38:15.278Z,102675.66
2022-11-12T19:40:42.585Z,102671.81
2022-11-12T19:43:09.081Z,102665.59
2022-11-12T19:45:35.600Z,102660.97
2022-11-12T19:48:02.931Z,102666.97
2022-11-12T19:50:30.674Z,102663.41
2022-11-12T19:52:57.371Z,102662.06
2022-11-12T19:55:25.656Z,102661.25
2022-11-12T19:57:52.091Z,102660.16
2022-11-12T20:00:18.691Z,102660.69
2022-11-12T20:02:45.156Z,102668.03
2022-11-12T20:05:11.802Z,102662.34
2022-11-12T20:07:38.374Z,102663.97
2022-11-12T20:10:05.291Z,102658.75
2022-11-12T20:12:32.945Z,102662.78
2022-11-12T20:14:59.413Z,102660.63
2022-11-12T20:17:25.878Z,102665.00
2022-11-12T20:19:52.440Z,102667.75
2022-11-12T20:22:18.869Z,102669.94
2022-11-12T20:24:45.385Z,102670.50
2022-11-12T20:27:11.870Z,102669.69
2022-11-12T20:29:38.404Z,102674.31
2022-11-12T20:32:05.364Z,102675.38
2022-11-12T20:34:31.815Z,102666.13
2022-11-12T20:36:58.228Z,102668.31
2022-11-12T20:39:24.669Z,102662.59
2022-11-12T20:41:51.212Z,102665.06
2022-11-12T20:44:17.728Z,102668.31
2022-11-12T20:46:44.154Z,102661.81
2022-11-12T20:49:10.589Z,102657.19
2022-11-12T20:51:37.065Z,102659.94
2022-11-12T20:54:03.861Z,102658.56
2022-11-12T20:56:30.835Z,102655.88
2022-11-12T20:58:59.028Z,102652.88
2022-11-12T21:01:27.498Z,102658.59
2022-11-12T21:03:54.740Z,102661.03
2022-11-12T21:06:23.845Z,102646.06
2022-11-12T21:08:50.731Z,102652.06
2022-11-12T21:11:19.591Z,102642.81
2022-11-12T21:13:46.162Z,102636.81
2022-11-12T21:16:14.052Z,102644.72
2022-11-12T21:18:41.026Z,102644.44
2022-11-12T21:21:10.544Z,102637.66
2022-11-12T21:23:39.950Z,102639.00
2022-11-12T21:26:17.813Z,102635.72
2022-11-12T21:28:55.176Z,102629.75
2022-11-12T21:31:26.206Z,102624.56
2022-11-12T21:33:54.888Z,102633.84
2022-11-12T21:36:22.547Z,102635.47
2022-11-12T21:38:49.190Z,102628.13
2022-11-12T21:41:18.967Z,102628.38
2022-11-12T21:43:45.811Z,102625.94
2022-11-12T21:46:17.954Z,102626.75
2022-11-12T21:48:45.288Z,102627.84
2022-11-12T21:51:16.652Z,102626.75
2022-11-12T21:53:44.701Z,102623.78
2022-11-12T21:56:13.981Z,102619.97
2022-11-12T21:58:40.604Z,102620.53
2022-11-12T22:01:16.563Z,102623.81
2022-11-12T22:03:44.415Z,102616.72
2022-11-12T22:06:11.331Z,102616.72
2022-11-12T22:08:38.269Z,102617.78
2022-11-12T22:11:10.442Z,102617.53
2022-11-12T22:13:37.711Z,102622.16
2022-11-12T22:16:15.712Z,102615.63
2022-11-12T22:18:43.814Z,102615.34
2022-11-12T22:21:13.435Z,102613.44
2022-11-12T22:23:40.216Z,102617.78
2022-11-12T22:26:12.425Z,102613.72
2022-11-12T22:28:39.160Z,102605.84
2022-11-12T22:31:12.044Z,102600.91
2022-11-12T22:33:39.241Z,102603.63
2022-11-12T22:36:08.885Z,102604.47
2022-11-12T22:38:41.992Z,102598.75
2022-11-12T22:41:11.086Z,102604.19
2022-11-12T22:43:38.051Z,102603.13
2022-11-12T22:46:10.824Z,102596.56
2022-11-12T22:48:37.995Z,102597.94
2022-11-12T22:51:07.478Z,102598.75
2022-11-12T22:53:34.692Z,102598.19
2022-11-12T22:56:03.070Z,102604.19
2022-11-12T22:58:30.163Z,102600.41
2022-11-12T23:00:57.140Z,102593.31
2022-11-12T23:03:23.681Z,102594.69
2022-11-12T23:05:56.821Z,102593.84
2022-11-12T23:08:23.597Z,102599.31
2022-11-12T23:10:50.103Z,102599.03
2022-11-12T23:13:16.571Z,102595.47
2022-11-12T23:15:44.519Z,102597.41
2022-11-12T23:18:11.241Z,102594.41
2022-11-12T23:20:37.997Z,102591.41
2022-11-12T23:23:04.438Z,102595.75
2022-11-12T23:25:33.734Z,102592.19
2022-11-12T23:28:00.146Z,102592.47
2022-11-12T23:30:26.606Z,102587.03
2022-11-12T23:32:53.108Z,102587.31
2022-11-12T23:35:19.661Z,102582.97
2022-11-12T23:37:46.088Z,102584.59
2022-11-12T23:40:12.523Z,102583.75
2022-11-12T23:42:38.934Z,102580.53
2022-11-12T23:45:05.942Z,102579.41
2022-11-12T23:47:32.461Z,102579.13
2022-11-12T23:49:58.847Z,102578.31
2022-11-12T23:52:25.342Z,102572.63
2022-11-12T23:54:51.743Z,102566.91
2022-11-12T23:57:18.210Z,102563.91
2022-11-12T23:59:44.788Z,102571.25
